sensor_id;sensor_type;location;lat;lon;timestamp;temperature;humidity
64869;DHT22;51349;52.424;10.840;2024-03-29T00:03:08;7.30;99.90
64869;DHT22;51349;52.424;10.840;2024-03-29T00:08:10;7.20;99.90
64869;DHT22;51349;52.424;10.840;2024-03-29T00:13:10;7.10;99.90
64869;DHT22;51349;52.424;10.840;2024-03-29T00:18:11;7.10;99.90
64869;DHT22;51349;52.424;10.840;2024-03-29T00:23:12;7.20;99.90
64869;DHT22;51349;52.424;10.840;2024-03-29T00:28:12;7.00;99.90
64869;DHT22;51349;52.424;10.840;2024-03-29T00:33:13;7.10;99.90
64869;DHT22;51349;52.424;10.840;2024-03-29T00:38:14;7.10;99.90
64869;DHT22;51349;52.424;10.840;2024-03-29T00:43:14;7.10;99.90
64869;DHT22;51349;52.424;10.840;2024-03-29T00:48:15;7.20;99.90
64869;DHT22;51349;52.424;10.840;2024-03-29T00:53:18;7.20;99.90
64869;DHT22;51349;52.424;10.840;2024-03-29T00:58:19;7.20;99.90
64869;DHT22;51349;52.424;10.840;2024-03-29T01:03:19;7.00;99.90
64869;DHT22;51349;52.424;10.840;2024-03-29T01:08:20;7.00;99.90
64869;DHT22;51349;52.424;10.840;2024-03-29T01:13:21;7.20;99.90
64869;DHT22;51349;52.424;10.840;2024-03-29T01:18:22;7.20;99.90
64869;DHT22;51349;52.424;10.840;2024-03-29T01:23:22;7.00;99.90
64869;DHT22;51349;52.424;10.840;2024-03-29T01:28:23;7.00;99.90
64869;DHT22;51349;52.424;10.840;2024-03-29T01:33:24;7.00;99.90
64869;DHT22;51349;52.424;10.840;2024-03-29T01:38:25;7.00;99.90
64869;DHT22;51349;52.424;10.840;2024-03-29T01:43:25;6.70;99.90
64869;DHT22;51349;52.424;10.840;2024-03-29T01:48:29;6.80;99.90
64869;DHT22;51349;52.424;10.840;2024-03-29T01:53:30;6.70;99.90
64869;DHT22;51349;52.424;10.840;2024-03-29T01:58:31;6.70;99.90
64869;DHT22;51349;52.424;10.840;2024-03-29T02:03:33;6.50;99.90
64869;DHT22;51349;52.424;10.840;2024-03-29T02:08:34;6.60;99.90
64869;DHT22;51349;52.424;10.840;2024-03-29T02:13:34;6.60;99.90
64869;DHT22;51349;52.424;10.840;2024-03-29T02:18:35;6.70;99.90
64869;DHT22;51349;52.424;10.840;2024-03-29T02:23:37;6.90;99.90
64869;DHT22;51349;52.424;10.840;2024-03-29T02:28:40;6.90;99.90
64869;DHT22;51349;52.424;10.840;2024-03-29T02:33:41;7.10;99.90
64869;DHT22;51349;52.424;10.840;2024-03-29T02:38:41;7.10;99.90
64869;DHT22;51349;52.424;10.840;2024-03-29T02:43:42;7.10;99.90
64869;DHT22;51349;52.424;10.840;2024-03-29T02:48:43;7.30;99.90
64869;DHT22;51349;52.424;10.840;2024-03-29T02:53:43;7.00;99.90
64869;DHT22;51349;52.424;10.840;2024-03-29T02:58:44;7.00;99.90
64869;DHT22;51349;52.424;10.840;2024-03-29T03:03:45;6.80;99.90
64869;DHT22;51349;52.424;10.840;2024-03-29T03:08:45;6.60;99.90
64869;DHT22;51349;52.424;10.840;2024-03-29T03:14:04;6.60;99.90
64869;DHT22;51349;52.424;10.840;2024-03-29T03:19:05;6.60;99.90
64869;DHT22;51349;52.424;10.840;2024-03-29T03:24:06;6.70;99.90
64869;DHT22;51349;52.424;10.840;2024-03-29T03:29:06;6.80;99.90
64869;DHT22;51349;52.424;10.840;2024-03-29T03:34:09;6.80;99.90
64869;DHT22;51349;52.424;10.840;2024-03-29T03:39:10;6.90;99.90
64869;DHT22;51349;52.424;10.840;2024-03-29T03:44:11;6.80;99.90
64869;DHT22;51349;52.424;10.840;2024-03-29T03:49:11;6.80;99.90
64869;DHT22;51349;52.424;10.840;2024-03-29T03:54:12;6.60;99.90
64869;DHT22;51349;52.424;10.840;2024-03-29T03:59:14;6.50;99.90
64869;DHT22;51349;52.424;10.840;2024-03-29T04:04:15;6.50;99.90
64869;DHT22;51349;52.424;10.840;2024-03-29T04:09:16;6.60;99.90
64869;DHT22;51349;52.424;10.840;2024-03-29T04:14:16;6.80;99.90
64869;DHT22;51349;52.424;10.840;2024-03-29T04:19:17;6.70;99.90
64869;DHT22;51349;52.424;10.840;2024-03-29T04:24:18;6.70;99.90
64869;DHT22;51349;52.424;10.840;2024-03-29T04:29:18;6.80;99.90
64869;DHT22;51349;52.424;10.840;2024-03-29T04:34:19;6.80;99.90
64869;DHT22;51349;52.424;10.840;2024-03-29T04:39:20;6.80;99.90
64869;DHT22;51349;52.424;10.840;2024-03-29T04:44:25;6.70;99.90
64869;DHT22;51349;52.424;10.840;2024-03-29T04:49:26;6.70;99.90
64869;DHT22;51349;52.424;10.840;2024-03-29T04:54:34;6.80;99.90
64869;DHT22;51349;52.424;10.840;2024-03-29T04:59:34;7.00;99.90
64869;DHT22;51349;52.424;10.840;2024-03-29T05:04:35;7.10;99.90
64869;DHT22;51349;52.424;10.840;2024-03-29T05:09:36;7.10;99.90
64869;DHT22;51349;52.424;10.840;2024-03-29T05:14:36;7.00;99.90
64869;DHT22;51349;52.424;10.840;2024-03-29T05:19:37;7.00;99.90
64869;DHT22;51349;52.424;10.840;2024-03-29T05:24:39;7.00;99.90
64869;DHT22;51349;52.424;10.840;2024-03-29T05:29:41;7.30;99.90
64869;DHT22;51349;52.424;10.840;2024-03-29T05:34:41;7.30;99.90
64869;DHT22;51349;52.424;10.840;2024-03-29T05:39:42;7.30;99.90
64869;DHT22;51349;52.424;10.840;2024-03-29T05:44:43;7.40;99.90
64869;DHT22;51349;52.424;10.840;2024-03-29T05:49:43;7.40;99.90
64869;DHT22;51349;52.424;10.840;2024-03-29T05:54:45;7.60;99.90
64869;DHT22;51349;52.424;10.840;2024-03-29T05:59:45;7.70;99.90
64869;DHT22;51349;52.424;10.840;2024-03-29T06:04:46;7.80;99.90
64869;DHT22;51349;52.424;10.840;2024-03-29T06:09:48;7.90;99.90
64869;DHT22;51349;52.424;10.840;2024-03-29T06:14:48;7.90;99.90
64869;DHT22;51349;52.424;10.840;2024-03-29T06:20:08;8.00;99.90
64869;DHT22;51349;52.424;10.840;2024-03-29T06:25:09;8.00;99.90
64869;DHT22;51349;52.424;10.840;2024-03-29T06:30:10;8.10;99.90
64869;DHT22;51349;52.424;10.840;2024-03-29T06:35:11;8.10;99.90
64869;DHT22;51349;52.424;10.840;2024-03-29T06:40:13;8.20;99.90
64869;DHT22;51349;52.424;10.840;2024-03-29T06:45:13;8.00;99.90
64869;DHT22;51349;52.424;10.840;2024-03-29T06:50:14;7.90;99.90
64869;DHT22;51349;52.424;10.840;2024-03-29T06:55:15;7.80;99.90
64869;DHT22;51349;52.424;10.840;2024-03-29T07:00:19;7.90;99.90
64869;DHT22;51349;52.424;10.840;2024-03-29T07:05:19;8.10;99.90
64869;DHT22;51349;52.424;10.840;2024-03-29T07:10:20;8.10;99.90
64869;DHT22;51349;52.424;10.840;2024-03-29T07:15:21;8.00;99.90
64869;DHT22;51349;52.424;10.840;2024-03-29T07:20:21;8.00;99.90
64869;DHT22;51349;52.424;10.840;2024-03-29T07:25:22;8.00;99.90
64869;DHT22;51349;52.424;10.840;2024-03-29T07:30:23;8.00;99.90
64869;DHT22;51349;52.424;10.840;2024-03-29T07:35:24;8.10;99.90
64869;DHT22;51349;52.424;10.840;2024-03-29T07:40:24;8.20;99.90
64869;DHT22;51349;52.424;10.840;2024-03-29T07:45:26;8.20;99.90
64869;DHT22;51349;52.424;10.840;2024-03-29T07:50:28;8.10;99.90
64869;DHT22;51349;52.424;10.840;2024-03-29T07:55:29;8.30;99.90
64869;DHT22;51349;52.424;10.840;2024-03-29T08:00:32;8.30;99.90
64869;DHT22;51349;52.424;10.840;2024-03-29T08:05:33;8.30;99.90
64869;DHT22;51349;52.424;10.840;2024-03-29T08:10:34;8.40;99.90
64869;DHT22;51349;52.424;10.840;2024-03-29T08:15:34;8.40;99.90
64869;DHT22;51349;52.424;10.840;2024-03-29T08:20:35;8.50;99.90
64869;DHT22;51349;52.424;10.840;2024-03-29T08:25:37;8.60;99.90
64869;DHT22;51349;52.424;10.840;2024-03-29T08:30:37;8.90;99.90
64869;DHT22;51349;52.424;10.840;2024-03-29T08:35:38;9.20;99.90
64869;DHT22;51349;52.424;10.840;2024-03-29T08:40:43;9.40;99.90
64869;DHT22;51349;52.424;10.840;2024-03-29T08:45:47;9.60;99.90
64869;DHT22;51349;52.424;10.840;2024-03-29T08:50:48;9.90;99.90
64869;DHT22;51349;52.424;10.840;2024-03-29T08:55:49;10.20;99.90
64869;DHT22;51349;52.424;10.840;2024-03-29T09:00:56;10.30;99.90
64869;DHT22;51349;52.424;10.840;2024-03-29T09:06:00;10.40;99.90
64869;DHT22;51349;52.424;10.840;2024-03-29T09:11:00;10.70;99.90
64869;DHT22;51349;52.424;10.840;2024-03-29T09:16:04;10.70;99.90
64869;DHT22;51349;52.424;10.840;2024-03-29T09:21:04;10.60;99.90
64869;DHT22;51349;52.424;10.840;2024-03-29T09:26:06;10.60;99.90
64869;DHT22;51349;52.424;10.840;2024-03-29T09:31:06;10.70;99.90
64869;DHT22;51349;52.424;10.840;2024-03-29T09:36:08;10.80;99.90
64869;DHT22;51349;52.424;10.840;2024-03-29T09:41:14;10.90;99.90
64869;DHT22;51349;52.424;10.840;2024-03-29T09:46:16;10.90;99.90
64869;DHT22;51349;52.424;10.840;2024-03-29T09:51:16;10.90;99.90
64869;DHT22;51349;52.424;10.840;2024-03-29T09:56:18;11.00;99.90
64869;DHT22;51349;52.424;10.840;2024-03-29T10:01:19;11.00;99.90
64869;DHT22;51349;52.424;10.840;2024-03-29T10:06:23;10.90;99.90
64869;DHT22;51349;52.424;10.840;2024-03-29T10:11:25;10.90;99.90
64869;DHT22;51349;52.424;10.840;2024-03-29T10:16:25;11.10;99.90
64869;DHT22;51349;52.424;10.840;2024-03-29T10:21:26;11.30;99.90
64869;DHT22;51349;52.424;10.840;2024-03-29T10:26:27;11.30;99.90
64869;DHT22;51349;52.424;10.840;2024-03-29T10:31:34;11.40;99.90
64869;DHT22;51349;52.424;10.840;2024-03-29T10:36:35;11.40;99.90
64869;DHT22;51349;52.424;10.840;2024-03-29T10:41:37;11.50;99.90
64869;DHT22;51349;52.424;10.840;2024-03-29T10:46:38;12.00;99.90
64869;DHT22;51349;52.424;10.840;2024-03-29T10:51:42;12.40;99.90
64869;DHT22;51349;52.424;10.840;2024-03-29T10:56:47;12.90;99.90
64869;DHT22;51349;52.424;10.840;2024-03-29T11:02:00;13.40;99.90
64869;DHT22;51349;52.424;10.840;2024-03-29T11:13:19;13.80;99.90
64869;DHT22;51349;52.424;10.840;2024-03-29T11:18:19;14.50;99.90
64869;DHT22;51349;52.424;10.840;2024-03-29T11:23:21;14.40;99.90
64869;DHT22;51349;52.424;10.840;2024-03-29T11:28:31;14.30;99.90
64869;DHT22;51349;52.424;10.840;2024-03-29T11:38:38;14.30;99.90
64869;DHT22;51349;52.424;10.840;2024-03-29T11:43:40;14.80;99.90
64869;DHT22;51349;52.424;10.840;2024-03-29T11:48:42;15.00;99.90
64869;DHT22;51349;52.424;10.840;2024-03-29T11:53:44;15.10;99.90
64869;DHT22;51349;52.424;10.840;2024-03-29T11:58:46;15.80;99.90
64869;DHT22;51349;52.424;10.840;2024-03-29T12:03:49;15.30;99.90
64869;DHT22;51349;52.424;10.840;2024-03-29T12:08:51;15.10;99.90
64869;DHT22;51349;52.424;10.840;2024-03-29T12:13:53;15.40;99.90
64869;DHT22;51349;52.424;10.840;2024-03-29T12:18:54;16.10;99.90
64869;DHT22;51349;52.424;10.840;2024-03-29T12:23:55;15.40;99.90
64869;DHT22;51349;52.424;10.840;2024-03-29T12:28:55;15.30;99.90
64869;DHT22;51349;52.424;10.840;2024-03-29T12:33:56;15.40;99.90
64869;DHT22;51349;52.424;10.840;2024-03-29T12:38:58;15.40;99.90
64869;DHT22;51349;52.424;10.840;2024-03-29T12:44:03;14.90;99.90
64869;DHT22;51349;52.424;10.840;2024-03-29T12:49:04;15.00;99.90
64869;DHT22;51349;52.424;10.840;2024-03-29T12:54:05;14.90;99.90
64869;DHT22;51349;52.424;10.840;2024-03-29T12:59:06;14.80;99.90
64869;DHT22;51349;52.424;10.840;2024-03-29T13:04:07;14.50;99.90
64869;DHT22;51349;52.424;10.840;2024-03-29T13:09:08;14.60;99.90
64869;DHT22;51349;52.424;10.840;2024-03-29T13:14:08;14.60;99.90
64869;DHT22;51349;52.424;10.840;2024-03-29T13:19:09;14.70;99.90
64869;DHT22;51349;52.424;10.840;2024-03-29T13:24:10;15.10;99.90
64869;DHT22;51349;52.424;10.840;2024-03-29T13:29:10;15.40;99.90
64869;DHT22;51349;52.424;10.840;2024-03-29T13:34:13;15.20;99.90
64869;DHT22;51349;52.424;10.840;2024-03-29T13:39:14;15.10;99.90
64869;DHT22;51349;52.424;10.840;2024-03-29T13:44:16;15.30;99.90
64869;DHT22;51349;52.424;10.840;2024-03-29T13:49:17;15.20;99.90
64869;DHT22;51349;52.424;10.840;2024-03-29T13:54:21;15.00;99.90
64869;DHT22;51349;52.424;10.840;2024-03-29T13:59:22;15.00;99.90
64869;DHT22;51349;52.424;10.840;2024-03-29T14:04:22;15.10;99.90
64869;DHT22;51349;52.424;10.840;2024-03-29T14:09:24;15.10;99.90
64869;DHT22;51349;52.424;10.840;2024-03-29T14:14:25;15.10;99.90
64869;DHT22;51349;52.424;10.840;2024-03-29T14:19:26;15.20;99.90
64869;DHT22;51349;52.424;10.840;2024-03-29T14:24:29;15.30;99.90
64869;DHT22;51349;52.424;10.840;2024-03-29T14:29:32;15.80;99.90
64869;DHT22;51349;52.424;10.840;2024-03-29T14:34:33;15.40;99.90
64869;DHT22;51349;52.424;10.840;2024-03-29T14:39:38;15.50;99.90
64869;DHT22;51349;52.424;10.840;2024-03-29T14:44:38;15.60;99.90
64869;DHT22;51349;52.424;10.840;2024-03-29T14:49:39;15.60;99.90
64869;DHT22;51349;52.424;10.840;2024-03-29T14:54:40;15.60;99.90
64869;DHT22;51349;52.424;10.840;2024-03-29T14:59:41;15.40;99.90
64869;DHT22;51349;52.424;10.840;2024-03-29T15:04:42;15.40;99.90
64869;DHT22;51349;52.424;10.840;2024-03-29T15:09:42;15.30;99.90
64869;DHT22;51349;52.424;10.840;2024-03-29T15:14:43;15.20;99.90
64869;DHT22;51349;52.424;10.840;2024-03-29T15:19:47;15.30;99.90
64869;DHT22;51349;52.424;10.840;2024-03-29T15:24:51;15.30;99.90
64869;DHT22;51349;52.424;10.840;2024-03-29T15:29:55;15.20;99.90
64869;DHT22;51349;52.424;10.840;2024-03-29T15:34:56;15.10;99.90
64869;DHT22;51349;52.424;10.840;2024-03-29T15:39:56;15.60;99.90
64869;DHT22;51349;52.424;10.840;2024-03-29T15:44:57;15.30;99.90
64869;DHT22;51349;52.424;10.840;2024-03-29T15:49:58;16.10;99.90
64869;DHT22;51349;52.424;10.840;2024-03-29T15:54:58;16.40;99.90
64869;DHT22;51349;52.424;10.840;2024-03-29T15:59:59;15.90;99.90
64869;DHT22;51349;52.424;10.840;2024-03-29T16:05:00;15.40;99.90
64869;DHT22;51349;52.424;10.840;2024-03-29T16:10:01;16.90;99.90
64869;DHT22;51349;52.424;10.840;2024-03-29T16:15:02;17.00;99.90
64869;DHT22;51349;52.424;10.840;2024-03-29T16:20:03;16.40;99.90
64869;DHT22;51349;52.424;10.840;2024-03-29T16:25:05;15.90;99.90
64869;DHT22;51349;52.424;10.840;2024-03-29T16:30:06;15.70;99.90
64869;DHT22;51349;52.424;10.840;2024-03-29T16:35:07;15.10;99.90
64869;DHT22;51349;52.424;10.840;2024-03-29T16:40:08;15.10;99.90
64869;DHT22;51349;52.424;10.840;2024-03-29T16:45:09;16.20;99.90
64869;DHT22;51349;52.424;10.840;2024-03-29T16:50:10;15.20;99.90
64869;DHT22;51349;52.424;10.840;2024-03-29T16:55:11;14.80;99.90
64869;DHT22;51349;52.424;10.840;2024-03-29T17:00:11;14.80;99.90
64869;DHT22;51349;52.424;10.840;2024-03-29T17:05:12;14.60;99.90
64869;DHT22;51349;52.424;10.840;2024-03-29T17:10:13;14.30;99.90
64869;DHT22;51349;52.424;10.840;2024-03-29T17:15:14;14.10;99.90
64869;DHT22;51349;52.424;10.840;2024-03-29T17:20:14;13.90;99.90
64869;DHT22;51349;52.424;10.840;2024-03-29T17:25:15;13.60;99.90
64869;DHT22;51349;52.424;10.840;2024-03-29T17:30:16;13.50;99.90
64869;DHT22;51349;52.424;10.840;2024-03-29T17:35:17;13.20;99.90
64869;DHT22;51349;52.424;10.840;2024-03-29T17:40:18;13.10;99.90
64869;DHT22;51349;52.424;10.840;2024-03-29T17:45:18;13.00;99.90
64869;DHT22;51349;52.424;10.840;2024-03-29T17:50:20;12.80;99.90
64869;DHT22;51349;52.424;10.840;2024-03-29T17:55:20;12.70;99.90
64869;DHT22;51349;52.424;10.840;2024-03-29T18:00:21;12.60;99.90
64869;DHT22;51349;52.424;10.840;2024-03-29T18:05:22;12.60;99.90
64869;DHT22;51349;52.424;10.840;2024-03-29T18:10:25;12.50;99.90
64869;DHT22;51349;52.424;10.840;2024-03-29T18:15:25;12.50;99.90
64869;DHT22;51349;52.424;10.840;2024-03-29T18:20:26;12.50;99.90
64869;DHT22;51349;52.424;10.840;2024-03-29T18:25:27;12.40;99.90
64869;DHT22;51349;52.424;10.840;2024-03-29T18:30:28;12.40;99.90
64869;DHT22;51349;52.424;10.840;2024-03-29T18:35:30;12.30;99.90
64869;DHT22;51349;52.424;10.840;2024-03-29T18:40:31;12.30;99.90
64869;DHT22;51349;52.424;10.840;2024-03-29T18:45:36;12.20;99.90
64869;DHT22;51349;52.424;10.840;2024-03-29T18:50:37;12.20;99.90
64869;DHT22;51349;52.424;10.840;2024-03-29T18:55:37;12.20;99.90
64869;DHT22;51349;52.424;10.840;2024-03-29T19:00:38;12.20;99.90
64869;DHT22;51349;52.424;10.840;2024-03-29T19:05:39;12.20;99.90
64869;DHT22;51349;52.424;10.840;2024-03-29T19:10:40;12.10;99.90
64869;DHT22;51349;52.424;10.840;2024-03-29T19:15:41;12.20;99.90
64869;DHT22;51349;52.424;10.840;2024-03-29T19:20:41;12.10;99.90
64869;DHT22;51349;52.424;10.840;2024-03-29T19:25:42;12.00;99.90
64869;DHT22;51349;52.424;10.840;2024-03-29T19:30:43;12.00;99.90
64869;DHT22;51349;52.424;10.840;2024-03-29T19:35:43;12.00;99.90
64869;DHT22;51349;52.424;10.840;2024-03-29T19:40:44;11.90;99.90
64869;DHT22;51349;52.424;10.840;2024-03-29T19:45:45;11.90;99.90
64869;DHT22;51349;52.424;10.840;2024-03-29T19:50:46;11.90;99.90
64869;DHT22;51349;52.424;10.840;2024-03-29T19:55:57;11.80;99.90
64869;DHT22;51349;52.424;10.840;2024-03-29T20:00:57;11.70;99.90
64869;DHT22;51349;52.424;10.840;2024-03-29T20:05:58;11.70;99.90
64869;DHT22;51349;52.424;10.840;2024-03-29T20:10:59;11.60;99.90
64869;DHT22;51349;52.424;10.840;2024-03-29T20:16:00;11.60;99.90
64869;DHT22;51349;52.424;10.840;2024-03-29T20:21:01;11.60;99.90
64869;DHT22;51349;52.424;10.840;2024-03-29T20:26:01;11.50;99.90
64869;DHT22;51349;52.424;10.840;2024-03-29T20:31:04;11.50;99.90
64869;DHT22;51349;52.424;10.840;2024-03-29T20:36:07;11.50;99.90
64869;DHT22;51349;52.424;10.840;2024-03-29T20:41:08;11.40;99.90
64869;DHT22;51349;52.424;10.840;2024-03-29T20:46:09;11.40;99.90
64869;DHT22;51349;52.424;10.840;2024-03-29T20:51:10;11.30;99.90
64869;DHT22;51349;52.424;10.840;2024-03-29T20:56:10;11.30;99.90
64869;DHT22;51349;52.424;10.840;2024-03-29T21:01:11;11.20;99.90
64869;DHT22;51349;52.424;10.840;2024-03-29T21:06:18;11.20;99.90
64869;DHT22;51349;52.424;10.840;2024-03-29T21:11:19;11.10;99.90
64869;DHT22;51349;52.424;10.840;2024-03-29T21:16:19;11.10;99.90
64869;DHT22;51349;52.424;10.840;2024-03-29T21:21:20;11.30;99.90
64869;DHT22;51349;52.424;10.840;2024-03-29T21:26:21;11.30;99.90
64869;DHT22;51349;52.424;10.840;2024-03-29T21:31:22;11.20;99.90
64869;DHT22;51349;52.424;10.840;2024-03-29T21:36:23;11.20;99.90
64869;DHT22;51349;52.424;10.840;2024-03-29T21:41:24;11.20;99.90
64869;DHT22;51349;52.424;10.840;2024-03-29T21:46:26;11.10;99.90
64869;DHT22;51349;52.424;10.840;2024-03-29T21:51:27;11.00;99.90
64869;DHT22;51349;52.424;10.840;2024-03-29T21:56:29;11.10;99.90
64869;DHT22;51349;52.424;10.840;2024-03-29T22:01:29;11.00;99.90
64869;DHT22;51349;52.424;10.840;2024-03-29T22:06:31;10.70;99.90
64869;DHT22;51349;52.424;10.840;2024-03-29T22:11:34;10.50;99.90
64869;DHT22;51349;52.424;10.840;2024-03-29T22:16:35;10.40;99.90
64869;DHT22;51349;52.424;10.840;2024-03-29T22:21:36;10.40;99.90
64869;DHT22;51349;52.424;10.840;2024-03-29T22:26:36;10.30;99.90
64869;DHT22;51349;52.424;10.840;2024-03-29T22:31:38;10.20;99.90
64869;DHT22;51349;52.424;10.840;2024-03-29T22:36:41;10.20;99.90
64869;DHT22;51349;52.424;10.840;2024-03-29T22:41:41;10.20;99.90
64869;DHT22;51349;52.424;10.840;2024-03-29T22:46:42;10.20;99.90
64869;DHT22;51349;52.424;10.840;2024-03-29T22:51:43;10.10;99.90
64869;DHT22;51349;52.424;10.840;2024-03-29T22:56:45;10.10;99.90
64869;DHT22;51349;52.424;10.840;2024-03-29T23:01:46;10.10;99.90
64869;DHT22;51349;52.424;10.840;2024-03-29T23:06:47;10.10;99.90
64869;DHT22;51349;52.424;10.840;2024-03-29T23:11:47;10.10;99.90
64869;DHT22;51349;52.424;10.840;2024-03-29T23:16:48;10.00;99.90
64869;DHT22;51349;52.424;10.840;2024-03-29T23:21:49;10.00;99.90
64869;DHT22;51349;52.424;10.840;2024-03-29T23:26:49;10.00;99.90
64869;DHT22;51349;52.424;10.840;2024-03-29T23:31:50;9.90;99.90
64869;DHT22;51349;52.424;10.840;2024-03-29T23:36:51;9.90;99.90
64869;DHT22;51349;52.424;10.840;2024-03-29T23:41:51;9.90;99.90
64869;DHT22;51349;52.424;10.840;2024-03-29T23:46:52;9.90;99.90
64869;DHT22;51349;52.424;10.840;2024-03-29T23:51:52;9.80;99.90
64869;DHT22;51349;52.424;10.840;2024-03-29T23:56:53;9.80;99.90
